createdAt,value
2018-08-28T00:02:10.439Z,18.40
2018-08-28T00:07:07.861Z,18.30
2018-08-28T00:12:04.489Z,18.20
2018-08-28T00:16:58.888Z,18.30
2018-08-28T00:21:53.635Z,18.40
2018-08-28T00:26:48.163Z,18.50
2018-08-28T00:31:43.035Z,18.60
2018-08-28T00:36:37.402Z,18.70
2018-08-28T00:41:31.966Z,18.70
2018-08-28T00:46:26.867Z,18.70
2018-08-28T00:51:21.604Z,18.70
2018-08-28T00:56:15.885Z,18.80
2018-08-28T01:01:11.067Z,18.80
2018-08-28T01:06:06.303Z,18.80
2018-08-28T01:11:01.275Z,18.70
2018-08-28T01:15:55.844Z,18.70
2018-08-28T01:20:50.553Z,18.70
2018-08-28T01:25:45.017Z,18.70
2018-08-28T01:30:39.844Z,18.70
2018-08-28T01:35:33.971Z,18.70
2018-08-28T01:40:29.017Z,18.70
2018-08-28T01:45:23.178Z,18.80
2018-08-28T01:50:18.796Z,18.80
2018-08-28T01:55:13.241Z,18.70
2018-08-28T02:00:08.198Z,18.80
2018-08-28T02:05:03.370Z,18.70
2018-08-28T02:09:58.003Z,18.80
2018-08-28T02:14:52.272Z,18.80
2018-08-28T02:19:46.612Z,18.70
2018-08-28T02:24:40.924Z,18.70
2018-08-28T02:29:42.360Z,18.60
2018-08-28T02:34:44.196Z,18.60
2018-08-28T02:39:38.422Z,18.60
2018-08-28T02:44:32.915Z,18.60
2018-08-28T02:49:27.360Z,18.60
2018-08-28T02:54:21.858Z,18.60
2018-08-28T02:59:23.314Z,18.60
2018-08-28T03:04:17.792Z,18.70
2018-08-28T03:09:27.606Z,18.70
2018-08-28T03:14:37.431Z,18.60
2018-08-28T03:19:32.207Z,18.60
2018-08-28T03:24:26.972Z,18.50
2018-08-28T03:29:21.441Z,18.50
2018-08-28T03:34:15.988Z,18.50
2018-08-28T03:39:10.229Z,18.40
2018-08-28T03:44:05.022Z,18.40
2018-08-28T03:48:59.248Z,18.40
2018-08-28T03:53:53.464Z,18.40
2018-08-28T03:58:47.901Z,18.30
2018-08-28T04:03:42.771Z,18.30
2018-08-28T04:08:37.126Z,18.20
2018-08-28T04:13:31.779Z,18.20
2018-08-28T04:18:25.877Z,18.20
2018-08-28T04:23:20.860Z,18.30
2018-08-28T04:28:15.192Z,18.30
2018-08-28T04:33:10.675Z,18.40
2018-08-28T04:38:06.050Z,18.50
2018-08-28T04:43:00.639Z,18.50
2018-08-28T04:47:57.474Z,18.40
2018-08-28T04:52:52.478Z,18.40
2018-08-28T04:57:54.827Z,18.40
2018-08-28T05:02:49.385Z,18.40
2018-08-28T05:07:45.456Z,18.50
2018-08-28T05:12:39.934Z,18.50
2018-08-28T05:17:34.869Z,18.50
2018-08-28T05:22:30.476Z,18.60
2018-08-28T05:27:25.997Z,18.60
2018-08-28T05:32:20.599Z,18.80
2018-08-28T05:37:15.919Z,18.90
2018-08-28T05:42:10.455Z,19.10
2018-08-28T05:47:06.891Z,19.20
2018-08-28T05:52:04.978Z,19.20
2018-08-28T05:57:00.196Z,19.20
2018-08-28T06:01:54.554Z,19.10
2018-08-28T06:06:48.867Z,19.00
2018-08-28T06:11:44.511Z,19.10
2018-08-28T06:16:39.593Z,19.10
2018-08-28T06:21:34.065Z,19.20
2018-08-28T06:26:29.344Z,19.30
2018-08-28T06:31:24.233Z,19.20
2018-08-28T06:36:19.714Z,19.50
2018-08-28T06:41:14.329Z,19.80
2018-08-28T06:46:09.496Z,20.30
2018-08-28T06:51:05.037Z,20.90
2018-08-28T06:55:59.794Z,21.40
2018-08-28T07:00:54.322Z,21.20
2018-08-28T07:05:48.846Z,20.90
2018-08-28T07:10:43.268Z,20.70
2018-08-28T07:15:38.071Z,20.90
2018-08-28T07:20:33.125Z,20.70
2018-08-28T07:25:28.678Z,20.90
2018-08-28T07:30:23.157Z,20.80
2018-08-28T07:35:18.045Z,20.50
2018-08-28T07:40:12.949Z,20.50
2018-08-28T07:45:08.902Z,20.70
2018-08-28T07:50:04.308Z,21.00
2018-08-28T07:54:58.859Z,21.00
2018-08-28T07:59:53.029Z,21.20
2018-08-28T08:04:47.471Z,21.50
2018-08-28T08:09:41.908Z,22.00
2018-08-28T08:14:37.099Z,22.90
2018-08-28T08:19:33.032Z,23.70
2018-08-28T08:24:28.885Z,24.10
2018-08-28T08:29:23.274Z,23.80
2018-08-28T08:34:17.925Z,24.20
2018-08-28T08:39:12.527Z,25.50
2018-08-28T08:44:07.941Z,25.90
2018-08-28T08:49:02.838Z,26.20
2018-08-28T08:53:57.338Z,24.70
2018-08-28T08:58:51.862Z,24.30
2018-08-28T09:03:46.241Z,26.10
2018-08-28T09:08:40.624Z,26.30
2018-08-28T09:13:35.328Z,25.30
2018-08-28T09:18:29.894Z,25.60
2018-08-28T09:23:24.439Z,25.40
2018-08-28T09:28:18.952Z,27.10
2018-08-28T09:33:13.774Z,29.30
2018-08-28T09:38:08.143Z,30.80
2018-08-28T09:43:04.299Z,29.80
2018-08-28T09:47:59.153Z,29.40
2018-08-28T09:52:56.006Z,29.20
2018-08-28T09:57:50.454Z,27.90
2018-08-28T10:02:44.953Z,30.00
2018-08-28T10:07:39.414Z,31.40
2018-08-28T10:12:33.966Z,35.10
2018-08-28T10:17:30.617Z,35.40
2018-08-28T10:22:26.037Z,36.50
2018-08-28T10:27:20.414Z,35.40
2018-08-28T10:32:15.072Z,35.90
2018-08-28T10:37:09.437Z,35.80
2018-08-28T10:42:06.922Z,36.30
2018-08-28T10:47:06.227Z,35.00
2018-08-28T10:52:01.128Z,33.30
2018-08-28T10:56:55.453Z,32.30
2018-08-28T11:01:50.048Z,34.90
2018-08-28T11:06:44.380Z,38.60
2018-08-28T11:11:38.847Z,37.20
2018-08-28T11:16:33.928Z,33.20
2018-08-28T11:21:29.403Z,30.40
2018-08-28T11:26:23.751Z,29.30
2018-08-28T11:31:18.122Z,29.70
2018-08-28T11:36:12.518Z,29.80
2018-08-28T11:41:07.329Z,29.80
2018-08-28T11:46:02.410Z,28.40
2018-08-28T11:50:57.308Z,28.20
2018-08-28T11:55:52.650Z,28.40
2018-08-28T12:00:48.670Z,28.80
2018-08-28T12:05:43.355Z,28.80
2018-08-28T12:10:38.086Z,28.20
2018-08-28T12:15:32.919Z,28.30
2018-08-28T12:20:27.442Z,28.40
2018-08-28T12:25:22.101Z,27.60
2018-08-28T12:30:16.686Z,28.10
2018-08-28T12:35:11.506Z,28.60
2018-08-28T12:40:06.824Z,28.60
2018-08-28T12:45:02.887Z,28.20
2018-08-28T12:49:57.478Z,27.80
2018-08-28T12:54:52.211Z,27.70
2018-08-28T12:59:46.682Z,27.50
2018-08-28T13:04:41.268Z,27.30
2018-08-28T13:09:35.919Z,26.90
2018-08-28T13:14:30.880Z,26.60
2018-08-28T13:19:25.362Z,27.10
2018-08-28T13:24:19.997Z,27.30
2018-08-28T13:29:14.766Z,26.50
2018-08-28T13:34:09.133Z,27.00
2018-08-28T13:39:04.424Z,27.20
2018-08-28T13:43:59.221Z,27.00
2018-08-28T13:48:54.297Z,26.90
2018-08-28T13:53:49.706Z,26.90
2018-08-28T13:58:44.065Z,26.60
2018-08-28T14:03:38.393Z,26.70
2018-08-28T14:08:32.855Z,26.90
2018-08-28T14:13:27.383Z,26.60
2018-08-28T14:18:21.854Z,26.50
2018-08-28T14:23:16.462Z,26.20
2018-08-28T14:28:11.040Z,26.10
2018-08-28T14:33:06.797Z,25.80
2018-08-28T14:38:01.353Z,25.20
2018-08-28T14:42:55.745Z,25.40
2018-08-28T14:47:50.025Z,25.40
2018-08-28T14:52:44.519Z,25.20
2018-08-28T14:57:39.892Z,25.00
2018-08-28T15:02:34.645Z,24.90
2018-08-28T15:07:29.422Z,24.70
2018-08-28T15:12:24.286Z,24.80
2018-08-28T15:17:18.508Z,24.80
2018-08-28T15:22:13.022Z,24.50
2018-08-28T15:27:07.343Z,24.50
2018-08-28T15:32:01.808Z,24.40
2018-08-28T15:36:57.474Z,24.40
2018-08-28T15:41:52.412Z,24.30
2018-08-28T15:46:47.282Z,24.20
2018-08-28T15:51:42.017Z,24.10
2018-08-28T15:56:37.039Z,23.80
2018-08-28T16:01:31.950Z,23.80
2018-08-28T16:06:27.308Z,23.80
2018-08-28T16:11:21.950Z,23.80
2018-08-28T16:16:16.778Z,23.70
2018-08-28T16:21:11.863Z,23.60
2018-08-28T16:26:12.907Z,23.50
2018-08-28T16:31:07.289Z,23.40
2018-08-28T16:36:02.735Z,23.30
2018-08-28T16:40:57.990Z,23.20
2018-08-28T16:45:53.007Z,23.00
2018-08-28T16:50:47.231Z,22.90
2018-08-28T16:55:42.385Z,22.80
2018-08-28T17:00:36.926Z,22.70
2018-08-28T17:05:31.709Z,22.60
2018-08-28T17:10:28.244Z,22.50
2018-08-28T17:15:24.630Z,22.40
2018-08-28T17:20:22.660Z,22.30
2018-08-28T17:25:19.063Z,22.20
2018-08-28T17:35:16.601Z,22.00
2018-08-28T17:40:15.812Z,21.80
2018-08-28T17:45:12.545Z,21.70
2018-08-28T17:50:10.251Z,21.50
2018-08-28T17:55:08.315Z,21.40
2018-08-28T18:00:05.649Z,21.20
2018-08-28T18:05:01.212Z,21.00
2018-08-28T18:09:55.886Z,20.90
2018-08-28T18:14:51.116Z,20.70
2018-08-28T18:19:46.550Z,20.60
2018-08-28T18:24:44.083Z,20.50
2018-08-28T18:29:39.794Z,20.30
2018-08-28T18:34:35.862Z,20.20
2018-08-28T18:39:30.596Z,20.10
2018-08-28T18:44:25.545Z,19.90
2018-08-28T18:49:21.587Z,19.80
2018-08-28T18:54:16.364Z,19.70
2018-08-28T18:59:11.188Z,19.60
2018-08-28T19:04:07.479Z,19.40
2018-08-28T19:09:07.943Z,19.30
2018-08-28T19:14:02.980Z,19.20
2018-08-28T19:18:58.265Z,19.10
2018-08-28T19:23:52.973Z,19.10
2018-08-28T19:28:47.593Z,19.00
2018-08-28T19:33:42.300Z,18.90
2018-08-28T19:38:37.165Z,18.80
2018-08-28T19:43:31.790Z,18.70
2018-08-28T19:48:26.761Z,18.70
2018-08-28T19:53:21.184Z,18.60
2018-08-28T19:58:15.745Z,18.50
2018-08-28T20:03:10.287Z,18.50
2018-08-28T20:08:06.453Z,18.30
2018-08-28T20:13:00.963Z,18.10
2018-08-28T20:17:56.984Z,17.90
2018-08-28T20:22:51.992Z,17.80
2018-08-28T20:27:46.520Z,17.60
2018-08-28T20:32:41.046Z,17.60
2018-08-28T20:37:35.923Z,17.50
2018-08-28T20:42:30.344Z,17.30
2018-08-28T20:47:24.804Z,17.30
2018-08-28T20:52:19.160Z,17.20
2018-08-28T20:57:13.940Z,17.20
2018-08-28T21:02:08.456Z,17.10
2018-08-28T21:07:04.854Z,17.00
2018-08-28T21:11:59.085Z,16.90
2018-08-28T21:16:53.714Z,16.90
2018-08-28T21:21:48.108Z,16.80
2018-08-28T21:26:43.300Z,16.80
2018-08-28T21:31:37.636Z,16.70
2018-08-28T21:36:32.111Z,16.60
2018-08-28T21:41:26.336Z,16.50
2018-08-28T21:46:21.061Z,16.40
2018-08-28T21:51:15.394Z,16.30
2018-08-28T21:56:09.801Z,16.20
2018-08-28T22:01:09.222Z,16.10
2018-08-28T22:06:04.630Z,15.90
2018-08-28T22:10:59.093Z,15.80
2018-08-28T22:15:54.540Z,15.80
2018-08-28T22:20:54.520Z,15.70
2018-08-28T22:25:49.565Z,15.60
2018-08-28T22:30:47.842Z,15.60
2018-08-28T22:35:42.363Z,15.50
2018-08-28T22:40:36.732Z,15.30
2018-08-28T22:45:31.043Z,15.30
2018-08-28T22:50:25.534Z,15.30
2018-08-28T23:00:44.778Z,15.20
2018-08-28T23:05:39.364Z,15.10
2018-08-28T23:10:34.216Z,15.00
2018-08-28T23:15:28.488Z,14.90
2018-08-28T23:20:24.286Z,14.80
2018-08-28T23:25:18.661Z,14.70
2018-08-28T23:30:13.142Z,14.60
2018-08-28T23:35:08.627Z,14.60
2018-08-28T23:40:03.784Z,14.50
2018-08-28T23:44:57.983Z,14.40
2018-08-28T23:49:52.199Z,14.40
2018-08-28T23:54:46.630Z,14.30
2018-08-28T23:59:41.052Z,14.30
